sensor_id;sensor_type;location;lat;lon;timestamp;temperature;humidity
69677;DHT22;56914;51.058;9.326;2023-03-01T00:00:26;3.00;55.80
69677;DHT22;56914;51.058;9.326;2023-03-01T00:01:30;3.00;56.50
69677;DHT22;56914;51.058;9.326;2023-03-01T00:02:38;3.00;56.20
69677;DHT22;56914;51.058;9.326;2023-03-01T00:03:41;3.00;56.40
69677;DHT22;56914;51.058;9.326;2023-03-01T00:04:46;3.00;56.20
69677;DHT22;56914;51.058;9.326;2023-03-01T00:05:48;3.10;56.10
69677;DHT22;56914;51.058;9.326;2023-03-01T00:06:52;3.10;56.10
69677;DHT22;56914;51.058;9.326;2023-03-01T00:07:54;3.10;56.00
69677;DHT22;56914;51.058;9.326;2023-03-01T00:08:59;3.10;56.00
69677;DHT22;56914;51.058;9.326;2023-03-01T00:10:02;3.10;55.90
69677;DHT22;56914;51.058;9.326;2023-03-01T00:11:07;3.10;56.60
69677;DHT22;56914;51.058;9.326;2023-03-01T00:12:10;3.10;56.70
69677;DHT22;56914;51.058;9.326;2023-03-01T00:13:13;3.10;56.80
69677;DHT22;56914;51.058;9.326;2023-03-01T00:14:16;3.10;56.90
69677;DHT22;56914;51.058;9.326;2023-03-01T00:15:19;3.10;56.70
69677;DHT22;56914;51.058;9.326;2023-03-01T00:16:25;3.20;56.70
69677;DHT22;56914;51.058;9.326;2023-03-01T00:17:29;3.20;56.70
69677;DHT22;56914;51.058;9.326;2023-03-01T00:18:31;3.20;56.50
69677;DHT22;56914;51.058;9.326;2023-03-01T00:19:35;3.20;56.30
69677;DHT22;56914;51.058;9.326;2023-03-01T00:20:39;3.30;56.60
69677;DHT22;56914;51.058;9.326;2023-03-01T00:21:42;3.30;56.50
69677;DHT22;56914;51.058;9.326;2023-03-01T00:22:45;3.30;56.50
69677;DHT22;56914;51.058;9.326;2023-03-01T00:23:48;3.30;56.50
69677;DHT22;56914;51.058;9.326;2023-03-01T00:24:51;3.30;56.40
69677;DHT22;56914;51.058;9.326;2023-03-01T00:25:54;3.30;56.30
69677;DHT22;56914;51.058;9.326;2023-03-01T00:26:57;3.30;56.10
69677;DHT22;56914;51.058;9.326;2023-03-01T00:28:01;3.30;56.10
69677;DHT22;56914;51.058;9.326;2023-03-01T00:29:03;3.30;56.30
69677;DHT22;56914;51.058;9.326;2023-03-01T00:30:08;3.30;56.20
69677;DHT22;56914;51.058;9.326;2023-03-01T00:31:14;3.30;56.20
69677;DHT22;56914;51.058;9.326;2023-03-01T00:32:18;3.30;56.30
69677;DHT22;56914;51.058;9.326;2023-03-01T00:33:20;3.30;56.40
69677;DHT22;56914;51.058;9.326;2023-03-01T00:34:23;3.30;56.30
69677;DHT22;56914;51.058;9.326;2023-03-01T00:35:26;3.30;56.30
69677;DHT22;56914;51.058;9.326;2023-03-01T00:36:35;3.40;56.30
69677;DHT22;56914;51.058;9.326;2023-03-01T00:37:39;3.30;56.20
69677;DHT22;56914;51.058;9.326;2023-03-01T00:38:58;3.30;56.10
69677;DHT22;56914;51.058;9.326;2023-03-01T00:40:02;3.30;56.00
69677;DHT22;56914;51.058;9.326;2023-03-01T00:41:10;3.30;55.90
69677;DHT22;56914;51.058;9.326;2023-03-01T00:42:16;3.30;55.90
69677;DHT22;56914;51.058;9.326;2023-03-01T00:43:19;3.20;55.80
69677;DHT22;56914;51.058;9.326;2023-03-01T00:44:22;3.20;55.80
69677;DHT22;56914;51.058;9.326;2023-03-01T00:45:24;3.20;55.70
69677;DHT22;56914;51.058;9.326;2023-03-01T00:46:28;3.20;55.80
69677;DHT22;56914;51.058;9.326;2023-03-01T00:47:35;3.10;55.80
69677;DHT22;56914;51.058;9.326;2023-03-01T00:48:39;3.10;56.00
69677;DHT22;56914;51.058;9.326;2023-03-01T00:49:41;3.10;56.00
69677;DHT22;56914;51.058;9.326;2023-03-01T00:50:44;3.10;56.00
69677;DHT22;56914;51.058;9.326;2023-03-01T00:51:48;3.10;56.30
69677;DHT22;56914;51.058;9.326;2023-03-01T00:52:53;3.00;56.40
69677;DHT22;56914;51.058;9.326;2023-03-01T00:53:59;3.00;56.60
69677;DHT22;56914;51.058;9.326;2023-03-01T00:55:04;3.00;56.70
69677;DHT22;56914;51.058;9.326;2023-03-01T00:56:08;3.00;56.40
69677;DHT22;56914;51.058;9.326;2023-03-01T00:57:12;2.90;56.60
69677;DHT22;56914;51.058;9.326;2023-03-01T00:58:15;3.00;56.70
69677;DHT22;56914;51.058;9.326;2023-03-01T00:59:18;2.90;56.80
69677;DHT22;56914;51.058;9.326;2023-03-01T01:00:21;2.90;56.80
69677;DHT22;56914;51.058;9.326;2023-03-01T01:01:25;3.00;57.00
69677;DHT22;56914;51.058;9.326;2023-03-01T01:02:29;3.00;57.10
69677;DHT22;56914;51.058;9.326;2023-03-01T01:03:32;3.00;57.30
69677;DHT22;56914;51.058;9.326;2023-03-01T01:04:35;3.00;57.30
69677;DHT22;56914;51.058;9.326;2023-03-01T01:05:37;3.00;57.30
69677;DHT22;56914;51.058;9.326;2023-03-01T01:06:42;3.00;57.20
69677;DHT22;56914;51.058;9.326;2023-03-01T01:07:47;3.00;57.20
69677;DHT22;56914;51.058;9.326;2023-03-01T01:08:52;3.00;57.30
69677;DHT22;56914;51.058;9.326;2023-03-01T01:09:54;3.00;57.40
69677;DHT22;56914;51.058;9.326;2023-03-01T01:11:12;3.10;57.50
69677;DHT22;56914;51.058;9.326;2023-03-01T01:12:15;3.10;57.60
69677;DHT22;56914;51.058;9.326;2023-03-01T01:13:18;3.10;57.50
69677;DHT22;56914;51.058;9.326;2023-03-01T01:14:21;3.10;57.40
69677;DHT22;56914;51.058;9.326;2023-03-01T01:15:26;3.10;57.40
69677;DHT22;56914;51.058;9.326;2023-03-01T01:16:29;3.10;57.40
69677;DHT22;56914;51.058;9.326;2023-03-01T01:17:33;3.10;57.20
69677;DHT22;56914;51.058;9.326;2023-03-01T01:18:35;3.10;57.30
69677;DHT22;56914;51.058;9.326;2023-03-01T01:19:38;3.20;57.40
69677;DHT22;56914;51.058;9.326;2023-03-01T01:20:41;3.10;57.30
69677;DHT22;56914;51.058;9.326;2023-03-01T01:21:44;3.20;57.40
69677;DHT22;56914;51.058;9.326;2023-03-01T01:22:48;3.20;57.30
69677;DHT22;56914;51.058;9.326;2023-03-01T01:23:52;3.10;57.10
69677;DHT22;56914;51.058;9.326;2023-03-01T01:24:54;3.10;57.10
69677;DHT22;56914;51.058;9.326;2023-03-01T01:25:57;3.10;57.00
69677;DHT22;56914;51.058;9.326;2023-03-01T01:26:59;3.10;56.90
69677;DHT22;56914;51.058;9.326;2023-03-01T01:28:03;3.10;56.80
69677;DHT22;56914;51.058;9.326;2023-03-01T01:29:06;3.10;56.70
69677;DHT22;56914;51.058;9.326;2023-03-01T01:30:10;3.10;56.60
69677;DHT22;56914;51.058;9.326;2023-03-01T01:31:13;3.10;56.50
69677;DHT22;56914;51.058;9.326;2023-03-01T01:32:16;3.10;56.50
69677;DHT22;56914;51.058;9.326;2023-03-01T01:33:19;3.10;56.40
69677;DHT22;56914;51.058;9.326;2023-03-01T01:34:22;3.10;56.50
69677;DHT22;56914;51.058;9.326;2023-03-01T01:35:25;3.00;56.40
69677;DHT22;56914;51.058;9.326;2023-03-01T01:36:28;3.00;56.60
69677;DHT22;56914;51.058;9.326;2023-03-01T01:37:31;3.00;56.60
69677;DHT22;56914;51.058;9.326;2023-03-01T01:38:37;3.00;56.70
69677;DHT22;56914;51.058;9.326;2023-03-01T01:39:40;3.10;57.50
69677;DHT22;56914;51.058;9.326;2023-03-01T01:40:43;3.00;56.80
69677;DHT22;56914;51.058;9.326;2023-03-01T01:41:46;3.00;56.70
69677;DHT22;56914;51.058;9.326;2023-03-01T01:42:50;3.00;56.80
69677;DHT22;56914;51.058;9.326;2023-03-01T01:44:11;3.00;56.90
69677;DHT22;56914;51.058;9.326;2023-03-01T01:45:32;3.00;56.90
69677;DHT22;56914;51.058;9.326;2023-03-01T01:46:37;3.00;56.80
69677;DHT22;56914;51.058;9.326;2023-03-01T01:47:42;3.00;56.80
69677;DHT22;56914;51.058;9.326;2023-03-01T01:49:02;3.10;56.90
69677;DHT22;56914;51.058;9.326;2023-03-01T01:50:16;3.00;56.70
69677;DHT22;56914;51.058;9.326;2023-03-01T01:51:25;3.00;57.00
69677;DHT22;56914;51.058;9.326;2023-03-01T01:52:35;3.00;57.00
69677;DHT22;56914;51.058;9.326;2023-03-01T01:53:47;3.00;57.00
69677;DHT22;56914;51.058;9.326;2023-03-01T01:54:57;3.00;57.00
69677;DHT22;56914;51.058;9.326;2023-03-01T01:56:03;3.00;56.90
69677;DHT22;56914;51.058;9.326;2023-03-01T01:57:13;3.00;57.20
69677;DHT22;56914;51.058;9.326;2023-03-01T01:58:20;2.90;57.10
69677;DHT22;56914;51.058;9.326;2023-03-01T01:59:25;2.90;57.20
69677;DHT22;56914;51.058;9.326;2023-03-01T02:00:30;2.90;57.10
69677;DHT22;56914;51.058;9.326;2023-03-01T02:01:33;2.90;57.10
69677;DHT22;56914;51.058;9.326;2023-03-01T02:02:39;2.90;57.80
69677;DHT22;56914;51.058;9.326;2023-03-01T02:03:46;2.90;57.10
69677;DHT22;56914;51.058;9.326;2023-03-01T02:04:58;2.90;57.10
69677;DHT22;56914;51.058;9.326;2023-03-01T02:06:13;2.90;57.10
69677;DHT22;56914;51.058;9.326;2023-03-01T02:07:22;2.90;57.20
69677;DHT22;56914;51.058;9.326;2023-03-01T02:08:28;2.90;57.20
69677;DHT22;56914;51.058;9.326;2023-03-01T02:09:34;2.90;57.10
69677;DHT22;56914;51.058;9.326;2023-03-01T02:10:38;2.90;56.90
69677;DHT22;56914;51.058;9.326;2023-03-01T02:11:43;2.90;56.90
69677;DHT22;56914;51.058;9.326;2023-03-01T02:12:47;2.90;56.90
69677;DHT22;56914;51.058;9.326;2023-03-01T02:13:50;2.80;56.90
69677;DHT22;56914;51.058;9.326;2023-03-01T02:14:54;2.80;57.10
69677;DHT22;56914;51.058;9.326;2023-03-01T02:15:56;2.80;57.10
69677;DHT22;56914;51.058;9.326;2023-03-01T02:17:06;2.80;57.10
69677;DHT22;56914;51.058;9.326;2023-03-01T02:18:11;2.80;57.00
69677;DHT22;56914;51.058;9.326;2023-03-01T02:19:26;2.80;57.10
69677;DHT22;56914;51.058;9.326;2023-03-01T02:20:38;2.80;57.00
69677;DHT22;56914;51.058;9.326;2023-03-01T02:21:50;2.70;57.00
69677;DHT22;56914;51.058;9.326;2023-03-01T02:22:56;2.70;57.20
69677;DHT22;56914;51.058;9.326;2023-03-01T02:24:10;2.70;57.40
69677;DHT22;56914;51.058;9.326;2023-03-01T02:25:30;2.60;57.30
69677;DHT22;56914;51.058;9.326;2023-03-01T02:26:45;2.60;58.00
69677;DHT22;56914;51.058;9.326;2023-03-01T02:27:57;2.60;58.30
69677;DHT22;56914;51.058;9.326;2023-03-01T02:29:03;2.60;57.70
69677;DHT22;56914;51.058;9.326;2023-03-01T02:30:08;2.60;58.10
69677;DHT22;56914;51.058;9.326;2023-03-01T02:31:17;2.50;58.10
69677;DHT22;56914;51.058;9.326;2023-03-01T02:32:40;2.50;58.50
69677;DHT22;56914;51.058;9.326;2023-03-01T02:33:44;2.40;59.00
69677;DHT22;56914;51.058;9.326;2023-03-01T02:34:52;2.40;59.40
69677;DHT22;56914;51.058;9.326;2023-03-01T02:35:57;2.40;59.00
69677;DHT22;56914;51.058;9.326;2023-03-01T02:37:14;2.40;59.10
69677;DHT22;56914;51.058;9.326;2023-03-01T02:38:24;2.40;59.20
69677;DHT22;56914;51.058;9.326;2023-03-01T02:39:31;2.40;59.20
69677;DHT22;56914;51.058;9.326;2023-03-01T02:40:38;2.40;59.30
69677;DHT22;56914;51.058;9.326;2023-03-01T02:41:45;2.40;59.30
69677;DHT22;56914;51.058;9.326;2023-03-01T02:42:53;2.40;59.30
69677;DHT22;56914;51.058;9.326;2023-03-01T02:43:56;2.40;59.20
69677;DHT22;56914;51.058;9.326;2023-03-01T02:45:01;2.40;59.20
69677;DHT22;56914;51.058;9.326;2023-03-01T02:46:05;2.30;59.20
69677;DHT22;56914;51.058;9.326;2023-03-01T02:47:09;2.30;59.10
69677;DHT22;56914;51.058;9.326;2023-03-01T02:48:11;2.30;59.20
69677;DHT22;56914;51.058;9.326;2023-03-01T02:49:20;2.20;59.20
69677;DHT22;56914;51.058;9.326;2023-03-01T02:50:44;2.20;59.30
69677;DHT22;56914;51.058;9.326;2023-03-01T02:52:08;2.10;59.40
69677;DHT22;56914;51.058;9.326;2023-03-01T02:53:21;2.10;59.40
69677;DHT22;56914;51.058;9.326;2023-03-01T02:54:29;2.10;59.30
69677;DHT22;56914;51.058;9.326;2023-03-01T02:55:34;2.20;59.30
69677;DHT22;56914;51.058;9.326;2023-03-01T02:56:36;2.20;59.20
69677;DHT22;56914;51.058;9.326;2023-03-01T02:57:44;2.20;59.20
69677;DHT22;56914;51.058;9.326;2023-03-01T02:58:47;2.20;59.10
69677;DHT22;56914;51.058;9.326;2023-03-01T02:59:55;2.20;59.00
69677;DHT22;56914;51.058;9.326;2023-03-01T03:00:59;2.20;58.90
69677;DHT22;56914;51.058;9.326;2023-03-01T03:02:03;2.20;58.80
69677;DHT22;56914;51.058;9.326;2023-03-01T03:03:06;2.10;58.80
69677;DHT22;56914;51.058;9.326;2023-03-01T03:04:18;2.10;58.70
69677;DHT22;56914;51.058;9.326;2023-03-01T03:05:24;2.10;58.70
69677;DHT22;56914;51.058;9.326;2023-03-01T03:06:29;2.10;59.40
69677;DHT22;56914;51.058;9.326;2023-03-01T03:07:32;2.10;58.80
69677;DHT22;56914;51.058;9.326;2023-03-01T03:08:41;2.10;58.90
69677;DHT22;56914;51.058;9.326;2023-03-01T03:09:43;2.00;58.90
69677;DHT22;56914;51.058;9.326;2023-03-01T03:10:46;2.10;59.00
69677;DHT22;56914;51.058;9.326;2023-03-01T03:11:49;2.00;59.00
69677;DHT22;56914;51.058;9.326;2023-03-01T03:12:56;2.00;59.10
69677;DHT22;56914;51.058;9.326;2023-03-01T03:13:59;2.00;59.10
69677;DHT22;56914;51.058;9.326;2023-03-01T03:15:03;2.00;59.10
69677;DHT22;56914;51.058;9.326;2023-03-01T03:16:12;2.00;59.00
69677;DHT22;56914;51.058;9.326;2023-03-01T03:17:15;2.00;59.00
69677;DHT22;56914;51.058;9.326;2023-03-01T03:18:18;2.10;59.00
69677;DHT22;56914;51.058;9.326;2023-03-01T03:19:21;2.00;59.00
69677;DHT22;56914;51.058;9.326;2023-03-01T03:20:29;2.00;59.00
69677;DHT22;56914;51.058;9.326;2023-03-01T03:21:34;2.00;59.00
69677;DHT22;56914;51.058;9.326;2023-03-01T03:22:36;2.00;59.00
69677;DHT22;56914;51.058;9.326;2023-03-01T03:23:40;2.00;59.00
69677;DHT22;56914;51.058;9.326;2023-03-01T03:24:42;2.00;59.00
69677;DHT22;56914;51.058;9.326;2023-03-01T03:25:48;2.00;59.00
69677;DHT22;56914;51.058;9.326;2023-03-01T03:26:50;2.00;59.00
69677;DHT22;56914;51.058;9.326;2023-03-01T03:27:54;2.00;59.00
69677;DHT22;56914;51.058;9.326;2023-03-01T03:28:58;2.00;58.90
69677;DHT22;56914;51.058;9.326;2023-03-01T03:30:02;2.00;58.80
69677;DHT22;56914;51.058;9.326;2023-03-01T03:31:06;2.00;58.80
69677;DHT22;56914;51.058;9.326;2023-03-01T03:32:11;2.00;58.70
69677;DHT22;56914;51.058;9.326;2023-03-01T03:33:14;2.00;58.70
69677;DHT22;56914;51.058;9.326;2023-03-01T03:34:17;2.00;58.80
69677;DHT22;56914;51.058;9.326;2023-03-01T03:35:22;2.00;58.90
69677;DHT22;56914;51.058;9.326;2023-03-01T03:36:26;2.00;58.90
69677;DHT22;56914;51.058;9.326;2023-03-01T03:37:28;2.00;58.90
69677;DHT22;56914;51.058;9.326;2023-03-01T03:38:50;2.10;59.10
69677;DHT22;56914;51.058;9.326;2023-03-01T03:39:53;2.10;59.20
69677;DHT22;56914;51.058;9.326;2023-03-01T03:41:01;2.10;59.00
69677;DHT22;56914;51.058;9.326;2023-03-01T03:42:05;2.10;59.10
69677;DHT22;56914;51.058;9.326;2023-03-01T03:43:12;2.10;59.00
69677;DHT22;56914;51.058;9.326;2023-03-01T03:44:15;2.10;59.00
69677;DHT22;56914;51.058;9.326;2023-03-01T03:45:18;2.10;58.80
69677;DHT22;56914;51.058;9.326;2023-03-01T03:46:22;2.10;58.80
69677;DHT22;56914;51.058;9.326;2023-03-01T03:47:26;2.10;58.80
69677;DHT22;56914;51.058;9.326;2023-03-01T03:48:29;2.10;58.80
69677;DHT22;56914;51.058;9.326;2023-03-01T03:49:31;2.20;58.80
69677;DHT22;56914;51.058;9.326;2023-03-01T03:50:35;2.20;58.80
69677;DHT22;56914;51.058;9.326;2023-03-01T03:51:39;2.20;58.80
69677;DHT22;56914;51.058;9.326;2023-03-01T03:52:43;2.20;58.60
69677;DHT22;56914;51.058;9.326;2023-03-01T03:53:45;2.20;58.60
69677;DHT22;56914;51.058;9.326;2023-03-01T03:54:49;2.20;58.50
69677;DHT22;56914;51.058;9.326;2023-03-01T03:55:51;2.30;58.40
69677;DHT22;56914;51.058;9.326;2023-03-01T03:56:55;2.30;58.30
69677;DHT22;56914;51.058;9.326;2023-03-01T03:57:58;2.30;58.30
69677;DHT22;56914;51.058;9.326;2023-03-01T03:59:04;2.30;58.30
69677;DHT22;56914;51.058;9.326;2023-03-01T04:00:10;2.30;58.40
69677;DHT22;56914;51.058;9.326;2023-03-01T04:01:14;2.30;58.40
69677;DHT22;56914;51.058;9.326;2023-03-01T04:02:17;2.30;58.30
69677;DHT22;56914;51.058;9.326;2023-03-01T04:03:26;2.30;58.30
69677;DHT22;56914;51.058;9.326;2023-03-01T04:04:29;2.30;58.20
69677;DHT22;56914;51.058;9.326;2023-03-01T04:05:34;2.30;58.20
69677;DHT22;56914;51.058;9.326;2023-03-01T04:06:37;2.30;58.30
69677;DHT22;56914;51.058;9.326;2023-03-01T04:07:41;2.30;58.30
69677;DHT22;56914;51.058;9.326;2023-03-01T04:08:43;2.30;58.40
69677;DHT22;56914;51.058;9.326;2023-03-01T04:09:49;2.20;58.40
69677;DHT22;56914;51.058;9.326;2023-03-01T04:10:53;2.30;58.50
69677;DHT22;56914;51.058;9.326;2023-03-01T04:11:59;2.30;58.50
69677;DHT22;56914;51.058;9.326;2023-03-01T04:13:01;2.30;58.50
69677;DHT22;56914;51.058;9.326;2023-03-01T04:14:04;2.30;58.30
69677;DHT22;56914;51.058;9.326;2023-03-01T04:15:07;2.30;58.30
69677;DHT22;56914;51.058;9.326;2023-03-01T04:16:15;2.30;58.30
69677;DHT22;56914;51.058;9.326;2023-03-01T04:17:18;2.30;58.30
69677;DHT22;56914;51.058;9.326;2023-03-01T04:18:23;2.30;58.30
69677;DHT22;56914;51.058;9.326;2023-03-01T04:19:27;2.30;58.30
69677;DHT22;56914;51.058;9.326;2023-03-01T04:20:34;2.30;58.40
69677;DHT22;56914;51.058;9.326;2023-03-01T04:21:37;2.30;58.50
69677;DHT22;56914;51.058;9.326;2023-03-01T04:22:41;2.30;58.50
69677;DHT22;56914;51.058;9.326;2023-03-01T04:23:43;2.30;58.50
69677;DHT22;56914;51.058;9.326;2023-03-01T04:24:47;2.30;58.50
69677;DHT22;56914;51.058;9.326;2023-03-01T04:25:51;2.30;58.60
69677;DHT22;56914;51.058;9.326;2023-03-01T04:26:57;2.30;58.80
69677;DHT22;56914;51.058;9.326;2023-03-01T04:27:59;2.20;58.60
69677;DHT22;56914;51.058;9.326;2023-03-01T04:29:02;2.20;58.70
69677;DHT22;56914;51.058;9.326;2023-03-01T04:30:07;2.20;58.60
69677;DHT22;56914;51.058;9.326;2023-03-01T04:31:12;2.20;58.50
69677;DHT22;56914;51.058;9.326;2023-03-01T04:32:18;2.20;58.50
69677;DHT22;56914;51.058;9.326;2023-03-01T04:33:22;2.20;58.50
69677;DHT22;56914;51.058;9.326;2023-03-01T04:34:27;2.20;58.50
69677;DHT22;56914;51.058;9.326;2023-03-01T04:35:30;2.20;58.40
69677;DHT22;56914;51.058;9.326;2023-03-01T04:36:33;2.10;58.40
69677;DHT22;56914;51.058;9.326;2023-03-01T04:37:37;2.20;58.40
69677;DHT22;56914;51.058;9.326;2023-03-01T04:38:41;2.20;58.30
69677;DHT22;56914;51.058;9.326;2023-03-01T04:39:45;2.20;58.20
69677;DHT22;56914;51.058;9.326;2023-03-01T04:40:47;2.10;58.10
69677;DHT22;56914;51.058;9.326;2023-03-01T04:41:50;2.10;58.20
69677;DHT22;56914;51.058;9.326;2023-03-01T04:42:53;2.20;58.40
69677;DHT22;56914;51.058;9.326;2023-03-01T04:43:56;2.20;58.50
69677;DHT22;56914;51.058;9.326;2023-03-01T04:44:58;2.20;58.50
69677;DHT22;56914;51.058;9.326;2023-03-01T04:46:02;2.20;58.50
69677;DHT22;56914;51.058;9.326;2023-03-01T04:47:05;2.20;58.70
69677;DHT22;56914;51.058;9.326;2023-03-01T04:48:08;2.20;58.80
69677;DHT22;56914;51.058;9.326;2023-03-01T04:49:11;2.20;58.80
69677;DHT22;56914;51.058;9.326;2023-03-01T04:50:17;2.20;59.00
69677;DHT22;56914;51.058;9.326;2023-03-01T04:51:22;2.20;59.00
69677;DHT22;56914;51.058;9.326;2023-03-01T04:52:25;2.20;58.90
69677;DHT22;56914;51.058;9.326;2023-03-01T04:53:28;2.20;58.90
69677;DHT22;56914;51.058;9.326;2023-03-01T04:54:33;2.20;58.90
69677;DHT22;56914;51.058;9.326;2023-03-01T04:55:36;2.20;59.10
69677;DHT22;56914;51.058;9.326;2023-03-01T04:56:39;2.20;59.30
69677;DHT22;56914;51.058;9.326;2023-03-01T04:57:42;2.20;59.20
69677;DHT22;56914;51.058;9.326;2023-03-01T04:58:48;2.20;59.20
69677;DHT22;56914;51.058;9.326;2023-03-01T04:59:50;2.20;59.20
69677;DHT22;56914;51.058;9.326;2023-03-01T05:00:54;2.20;59.30
69677;DHT22;56914;51.058;9.326;2023-03-01T05:01:56;2.20;59.20
69677;DHT22;56914;51.058;9.326;2023-03-01T05:03:02;2.20;59.20
69677;DHT22;56914;51.058;9.326;2023-03-01T05:04:04;2.30;59.20
69677;DHT22;56914;51.058;9.326;2023-03-01T05:05:09;2.30;59.20
69677;DHT22;56914;51.058;9.326;2023-03-01T05:06:14;2.30;59.10
69677;DHT22;56914;51.058;9.326;2023-03-01T05:07:17;2.30;59.10
69677;DHT22;56914;51.058;9.326;2023-03-01T05:08:21;2.30;59.00
69677;DHT22;56914;51.058;9.326;2023-03-01T05:09:24;2.30;58.90
69677;DHT22;56914;51.058;9.326;2023-03-01T05:10:28;2.30;58.80
69677;DHT22;56914;51.058;9.326;2023-03-01T05:11:35;2.30;58.80
69677;DHT22;56914;51.058;9.326;2023-03-01T05:12:38;2.40;58.70
69677;DHT22;56914;51.058;9.326;2023-03-01T05:13:41;2.30;58.50
69677;DHT22;56914;51.058;9.326;2023-03-01T05:14:45;2.40;58.70
69677;DHT22;56914;51.058;9.326;2023-03-01T05:15:53;2.40;58.60
69677;DHT22;56914;51.058;9.326;2023-03-01T05:16:56;2.40;58.60
69677;DHT22;56914;51.058;9.326;2023-03-01T05:18:06;2.40;58.60
69677;DHT22;56914;51.058;9.326;2023-03-01T05:19:13;2.40;58.50
69677;DHT22;56914;51.058;9.326;2023-03-01T05:20:17;2.30;58.50
69677;DHT22;56914;51.058;9.326;2023-03-01T05:21:26;2.30;58.70
69677;DHT22;56914;51.058;9.326;2023-03-01T05:22:28;2.30;58.60
69677;DHT22;56914;51.058;9.326;2023-03-01T05:23:33;2.30;58.60
69677;DHT22;56914;51.058;9.326;2023-03-01T05:24:36;2.30;58.60
69677;DHT22;56914;51.058;9.326;2023-03-01T05:25:40;2.30;58.70
69677;DHT22;56914;51.058;9.326;2023-03-01T05:26:43;2.30;58.80
69677;DHT22;56914;51.058;9.326;2023-03-01T05:27:47;2.30;58.70
69677;DHT22;56914;51.058;9.326;2023-03-01T05:28:49;2.30;58.80
69677;DHT22;56914;51.058;9.326;2023-03-01T05:29:54;2.20;58.80
69677;DHT22;56914;51.058;9.326;2023-03-01T05:30:57;2.20;58.80
69677;DHT22;56914;51.058;9.326;2023-03-01T05:32:02;2.20;58.70
69677;DHT22;56914;51.058;9.326;2023-03-01T05:33:04;2.20;58.70
69677;DHT22;56914;51.058;9.326;2023-03-01T05:34:12;2.20;58.70
69677;DHT22;56914;51.058;9.326;2023-03-01T05:35:17;2.20;58.80
69677;DHT22;56914;51.058;9.326;2023-03-01T05:36:21;2.20;58.90
69677;DHT22;56914;51.058;9.326;2023-03-01T05:37:24;2.20;59.00
69677;DHT22;56914;51.058;9.326;2023-03-01T05:38:28;2.10;59.20
69677;DHT22;56914;51.058;9.326;2023-03-01T05:39:31;2.10;59.40
69677;DHT22;56914;51.058;9.326;2023-03-01T05:40:34;2.10;59.50
69677;DHT22;56914;51.058;9.326;2023-03-01T05:41:38;2.00;59.60
69677;DHT22;56914;51.058;9.326;2023-03-01T05:42:40;2.00;59.60
69677;DHT22;56914;51.058;9.326;2023-03-01T05:43:43;2.10;59.60
69677;DHT22;56914;51.058;9.326;2023-03-01T05:44:47;2.10;59.60
69677;DHT22;56914;51.058;9.326;2023-03-01T05:45:49;2.10;59.50
69677;DHT22;56914;51.058;9.326;2023-03-01T05:46:53;2.10;59.60
69677;DHT22;56914;51.058;9.326;2023-03-01T05:47:59;2.10;59.50
69677;DHT22;56914;51.058;9.326;2023-03-01T05:49:06;2.10;59.50
69677;DHT22;56914;51.058;9.326;2023-03-01T05:50:18;2.10;59.50
69677;DHT22;56914;51.058;9.326;2023-03-01T05:51:38;2.10;59.50
69677;DHT22;56914;51.058;9.326;2023-03-01T05:53:03;2.00;59.70
69677;DHT22;56914;51.058;9.326;2023-03-01T05:54:09;2.00;59.60
69677;DHT22;56914;51.058;9.326;2023-03-01T05:55:12;2.00;59.60
69677;DHT22;56914;51.058;9.326;2023-03-01T05:56:15;2.00;59.60
69677;DHT22;56914;51.058;9.326;2023-03-01T05:57:18;2.00;59.50
69677;DHT22;56914;51.058;9.326;2023-03-01T05:58:21;2.00;59.60
69677;DHT22;56914;51.058;9.326;2023-03-01T05:59:26;2.00;59.60
69677;DHT22;56914;51.058;9.326;2023-03-01T06:00:30;2.00;59.50
69677;DHT22;56914;51.058;9.326;2023-03-01T06:01:34;2.00;59.40
69677;DHT22;56914;51.058;9.326;2023-03-01T06:02:37;2.00;59.30
69677;DHT22;56914;51.058;9.326;2023-03-01T06:03:40;2.00;59.20
69677;DHT22;56914;51.058;9.326;2023-03-01T06:04:42;2.00;59.00
69677;DHT22;56914;51.058;9.326;2023-03-01T06:05:46;2.00;59.00
69677;DHT22;56914;51.058;9.326;2023-03-01T06:06:48;2.00;58.90
69677;DHT22;56914;51.058;9.326;2023-03-01T06:07:52;2.00;58.80
69677;DHT22;56914;51.058;9.326;2023-03-01T06:08:56;1.90;58.80
69677;DHT22;56914;51.058;9.326;2023-03-01T06:10:04;2.00;58.90
69677;DHT22;56914;51.058;9.326;2023-03-01T06:11:06;1.90;58.80
69677;DHT22;56914;51.058;9.326;2023-03-01T06:12:10;2.00;58.80
69677;DHT22;56914;51.058;9.326;2023-03-01T06:13:14;1.90;59.50
69677;DHT22;56914;51.058;9.326;2023-03-01T06:14:18;1.90;58.80
69677;DHT22;56914;51.058;9.326;2023-03-01T06:15:21;2.00;58.90
69677;DHT22;56914;51.058;9.326;2023-03-01T06:16:26;2.00;58.90
69677;DHT22;56914;51.058;9.326;2023-03-01T06:17:32;2.00;58.80
69677;DHT22;56914;51.058;9.326;2023-03-01T06:18:39;2.00;58.70
69677;DHT22;56914;51.058;9.326;2023-03-01T06:19:43;2.00;58.70
69677;DHT22;56914;51.058;9.326;2023-03-01T06:20:52;2.00;58.70
69677;DHT22;56914;51.058;9.326;2023-03-01T06:21:56;2.00;58.80
69677;DHT22;56914;51.058;9.326;2023-03-01T06:22:58;2.00;58.70
69677;DHT22;56914;51.058;9.326;2023-03-01T06:24:03;2.00;58.60
69677;DHT22;56914;51.058;9.326;2023-03-01T06:25:09;2.00;58.60
69677;DHT22;56914;51.058;9.326;2023-03-01T06:26:12;2.00;58.60
69677;DHT22;56914;51.058;9.326;2023-03-01T06:27:15;2.00;58.60
69677;DHT22;56914;51.058;9.326;2023-03-01T06:28:18;2.00;58.60
69677;DHT22;56914;51.058;9.326;2023-03-01T06:29:20;2.00;58.70
69677;DHT22;56914;51.058;9.326;2023-03-01T06:30:25;2.00;58.70
69677;DHT22;56914;51.058;9.326;2023-03-01T06:31:31;2.00;58.60
69677;DHT22;56914;51.058;9.326;2023-03-01T06:32:35;2.00;58.50
69677;DHT22;56914;51.058;9.326;2023-03-01T06:33:37;2.00;58.40
69677;DHT22;56914;51.058;9.326;2023-03-01T06:34:40;2.00;58.40
69677;DHT22;56914;51.058;9.326;2023-03-01T06:35:42;2.00;58.50
69677;DHT22;56914;51.058;9.326;2023-03-01T06:36:46;2.00;58.70
69677;DHT22;56914;51.058;9.326;2023-03-01T06:37:49;2.00;58.70
69677;DHT22;56914;51.058;9.326;2023-03-01T06:38:52;2.00;58.90
69677;DHT22;56914;51.058;9.326;2023-03-01T06:39:56;2.00;58.90
69677;DHT22;56914;51.058;9.326;2023-03-01T06:40:59;2.00;58.80
69677;DHT22;56914;51.058;9.326;2023-03-01T06:42:03;2.00;58.80
69677;DHT22;56914;51.058;9.326;2023-03-01T06:43:05;2.00;59.00
69677;DHT22;56914;51.058;9.326;2023-03-01T06:44:09;2.00;59.00
69677;DHT22;56914;51.058;9.326;2023-03-01T06:45:12;2.00;59.10
69677;DHT22;56914;51.058;9.326;2023-03-01T06:46:15;2.00;59.00
69677;DHT22;56914;51.058;9.326;2023-03-01T06:47:18;2.00;59.20
69677;DHT22;56914;51.058;9.326;2023-03-01T06:48:21;2.00;59.20
69677;DHT22;56914;51.058;9.326;2023-03-01T06:49:24;2.10;59.20
69677;DHT22;56914;51.058;9.326;2023-03-01T06:50:26;2.10;59.20
69677;DHT22;56914;51.058;9.326;2023-03-01T06:51:35;2.10;59.20
69677;DHT22;56914;51.058;9.326;2023-03-01T06:52:38;2.10;59.20
69677;DHT22;56914;51.058;9.326;2023-03-01T06:53:41;2.10;59.20
69677;DHT22;56914;51.058;9.326;2023-03-01T06:54:43;2.10;59.30
69677;DHT22;56914;51.058;9.326;2023-03-01T06:55:54;2.10;59.50
69677;DHT22;56914;51.058;9.326;2023-03-01T06:56:57;2.00;59.80